createdAt,value
2018-10-18T00:00:15.690Z,79.03
2018-10-18T00:02:44.063Z,78.72
2018-10-18T00:05:12.453Z,79.21
2018-10-18T00:07:40.867Z,78.96
2018-10-18T00:10:09.584Z,79.31
2018-10-18T00:12:38.187Z,79.33
2018-10-18T00:15:07.393Z,79.25
2018-10-18T00:17:41.257Z,78.65
2018-10-18T00:20:09.733Z,78.68
2018-10-18T00:22:38.079Z,78.63
2018-10-18T00:25:06.646Z,78.50
2018-10-18T00:27:35.042Z,78.19
2018-10-18T00:30:03.479Z,78.15
2018-10-18T00:32:31.869Z,78.15
2018-10-18T00:35:00.241Z,78.17
2018-10-18T00:37:28.648Z,78.70
2018-10-18T00:39:57.032Z,78.09
2018-10-18T00:42:25.440Z,78.96
2018-10-18T00:44:53.810Z,78.78
2018-10-18T00:47:22.216Z,78.66
2018-10-18T00:49:50.714Z,78.73
2018-10-18T00:52:19.158Z,78.16
2018-10-18T00:54:47.544Z,78.88
2018-10-18T00:57:15.946Z,79.04
2018-10-18T00:59:44.319Z,78.49
2018-10-18T01:02:12.766Z,78.98
2018-10-18T01:04:41.134Z,78.69
2018-10-18T01:07:09.560Z,78.61
2018-10-18T01:09:37.940Z,79.02
2018-10-18T01:12:06.434Z,78.33
2018-10-18T01:14:34.735Z,78.34
2018-10-18T01:17:04.150Z,78.63
2018-10-18T01:19:34.446Z,78.91
2018-10-18T01:22:03.775Z,78.75
2018-10-18T01:24:32.155Z,78.47
2018-10-18T01:27:00.554Z,78.51
2018-10-18T01:29:29.099Z,78.69
2018-10-18T01:31:58.034Z,78.29
2018-10-18T01:34:26.442Z,78.60
2018-10-18T01:36:54.870Z,78.67
2018-10-18T01:39:23.278Z,78.75
2018-10-18T01:41:51.701Z,78.41
2018-10-18T01:44:20.214Z,78.41
2018-10-18T01:46:48.590Z,78.65
2018-10-18T01:49:16.990Z,79.08
2018-10-18T01:51:45.365Z,78.51
2018-10-18T01:54:13.882Z,78.75
2018-10-18T01:56:42.186Z,78.78
2018-10-18T01:59:10.580Z,79.13
2018-10-18T02:01:38.953Z,79.82
2018-10-18T02:04:07.350Z,79.18
2018-10-18T02:06:35.721Z,79.60
2018-10-18T02:09:04.794Z,79.48
2018-10-18T02:11:33.170Z,79.24
2018-10-18T02:14:01.564Z,80.01
2018-10-18T02:16:29.946Z,79.48
2018-10-18T02:18:58.394Z,79.88
2018-10-18T02:21:26.746Z,79.90
2018-10-18T02:23:55.200Z,79.70
2018-10-18T02:26:23.563Z,80.10
2018-10-18T02:28:51.974Z,80.02
2018-10-18T02:31:20.370Z,79.63
2018-10-18T02:33:48.763Z,79.49
2018-10-18T02:36:17.183Z,79.96
2018-10-18T02:38:45.554Z,79.27
2018-10-18T02:41:13.938Z,79.37
2018-10-18T02:43:42.339Z,79.73
2018-10-18T02:46:10.879Z,79.17
2018-10-18T02:48:39.286Z,79.32
2018-10-18T02:51:07.666Z,79.37
2018-10-18T02:53:36.054Z,79.55
2018-10-18T02:56:04.430Z,79.32
2018-10-18T02:58:32.834Z,79.40
2018-10-18T03:01:01.252Z,79.01
2018-10-18T03:03:29.655Z,79.07
2018-10-18T03:05:58.058Z,79.23
2018-10-18T03:08:26.450Z,79.70
2018-10-18T03:10:54.824Z,79.98
2018-10-18T03:13:23.219Z,80.20
2018-10-18T03:15:51.644Z,79.96
2018-10-18T03:18:20.046Z,79.90
2018-10-18T03:20:48.418Z,79.78
2018-10-18T03:23:16.818Z,80.05
2018-10-18T03:25:45.185Z,80.11
2018-10-18T03:28:13.595Z,79.81
2018-10-18T03:30:41.996Z,80.13
2018-10-18T03:33:10.372Z,79.93
2018-10-18T03:35:38.776Z,80.29
2018-10-18T03:38:07.163Z,79.98
2018-10-18T03:40:35.568Z,80.22
2018-10-18T03:43:04.119Z,80.15
2018-10-18T03:45:32.516Z,80.26
2018-10-18T03:48:00.890Z,80.07
2018-10-18T03:50:29.286Z,80.16
2018-10-18T03:52:57.663Z,80.33
2018-10-18T03:55:26.062Z,80.17
2018-10-18T03:57:54.432Z,80.40
2018-10-18T04:00:22.839Z,80.26
2018-10-18T04:02:51.231Z,80.56
2018-10-18T04:05:19.632Z,80.85
2018-10-18T04:07:48.003Z,80.53
2018-10-18T04:10:16.390Z,80.69
2018-10-18T04:12:44.816Z,80.86
2018-10-18T04:15:13.190Z,80.95
2018-10-18T04:17:41.563Z,80.51
2018-10-18T04:20:09.961Z,81.08
2018-10-18T04:22:38.419Z,80.75
2018-10-18T04:25:07.446Z,80.89
2018-10-18T04:27:35.818Z,80.67
2018-10-18T04:30:04.316Z,81.20
2018-10-18T04:32:32.782Z,81.00
2018-10-18T04:35:01.183Z,80.66
2018-10-18T04:37:29.602Z,80.87
2018-10-18T04:39:57.974Z,80.52
2018-10-18T04:42:26.377Z,80.72
2018-10-18T04:44:54.778Z,80.75
2018-10-18T04:47:23.280Z,80.67
2018-10-18T04:49:51.603Z,80.82
2018-10-18T04:52:19.973Z,80.72
2018-10-18T04:54:48.361Z,80.74
2018-10-18T04:57:16.726Z,80.65
2018-10-18T04:59:45.123Z,81.05
2018-10-18T05:02:13.503Z,80.74
2018-10-18T05:04:52.158Z,80.89
2018-10-18T05:07:20.635Z,81.09
2018-10-18T05:09:49.199Z,81.18
2018-10-18T05:12:17.680Z,81.38
2018-10-18T05:14:46.074Z,81.62
2018-10-18T05:17:14.453Z,81.40
2018-10-18T05:19:42.854Z,81.46
2018-10-18T05:22:11.234Z,81.31
2018-10-18T05:24:39.611Z,81.57
2018-10-18T05:27:08.012Z,81.27
2018-10-18T05:29:36.398Z,81.54
2018-10-18T05:32:05.702Z,81.65
2018-10-18T05:34:34.070Z,81.99
2018-10-18T05:37:02.502Z,81.57
2018-10-18T05:39:30.890Z,81.78
2018-10-18T05:41:59.286Z,82.12
2018-10-18T05:44:27.791Z,81.89
2018-10-18T05:46:56.185Z,81.97
2018-10-18T05:49:24.588Z,82.13
2018-10-18T05:51:52.986Z,82.22
2018-10-18T05:54:21.410Z,82.49
2018-10-18T05:56:49.767Z,82.22
2018-10-18T05:59:18.134Z,82.01
2018-10-18T06:01:46.535Z,82.88
2018-10-18T06:04:14.914Z,82.73
2018-10-18T06:06:43.314Z,82.43
2018-10-18T06:09:13.390Z,83.04
2018-10-18T06:11:41.782Z,82.73
2018-10-18T06:14:10.156Z,82.96
2018-10-18T06:16:38.553Z,83.65
2018-10-18T06:19:06.941Z,83.32
2018-10-18T06:21:35.382Z,83.15
2018-10-18T06:24:03.750Z,83.94
2018-10-18T06:26:32.150Z,83.97
2018-10-18T06:29:00.531Z,84.34
2018-10-18T06:31:29.006Z,84.73
2018-10-18T06:33:57.388Z,84.31
2018-10-18T06:36:25.791Z,85.69
2018-10-18T06:38:54.167Z,85.38
2018-10-18T06:41:22.563Z,85.80
2018-10-18T06:43:50.944Z,86.64
2018-10-18T06:46:19.347Z,86.68
2018-10-18T06:48:47.765Z,87.23
2018-10-18T06:51:16.245Z,87.41
2018-10-18T06:53:44.623Z,87.20
2018-10-18T06:56:13.026Z,87.67
2018-10-18T06:58:41.402Z,87.79
2018-10-18T07:01:09.814Z,87.85
2018-10-18T07:03:38.194Z,87.55
2018-10-18T07:06:06.662Z,88.28
2018-10-18T07:08:35.018Z,88.89
2018-10-18T07:11:03.498Z,88.22
2018-10-18T07:13:31.836Z,88.67
2018-10-18T07:16:00.246Z,88.93
2018-10-18T07:18:28.794Z,89.41
2018-10-18T07:20:57.171Z,89.72
2018-10-18T07:23:25.580Z,89.38
2018-10-18T07:25:53.968Z,89.88
2018-10-18T07:28:22.382Z,89.65
2018-10-18T07:30:50.787Z,89.80
2018-10-18T07:33:19.218Z,90.31
2018-10-18T07:35:47.607Z,89.67
2018-10-18T07:38:16.019Z,90.31
2018-10-18T07:40:44.450Z,90.45
2018-10-18T07:43:12.863Z,90.77
2018-10-18T07:45:41.253Z,90.35
2018-10-18T07:48:09.707Z,90.74
2018-10-18T07:50:38.054Z,90.91
2018-10-18T07:53:06.580Z,90.74
2018-10-18T07:55:34.872Z,91.37
2018-10-18T07:58:03.274Z,91.28
2018-10-18T08:00:31.756Z,90.57
2018-10-18T08:03:00.175Z,90.88
2018-10-18T08:05:28.560Z,90.90
2018-10-18T08:07:56.967Z,90.63
2018-10-18T08:10:25.348Z,90.57
2018-10-18T08:12:53.775Z,90.43
2018-10-18T08:15:22.182Z,91.19
2018-10-18T08:17:50.594Z,90.63
2018-10-18T08:20:18.999Z,90.79
2018-10-18T08:22:47.402Z,91.04
2018-10-18T08:25:15.879Z,91.38
2018-10-18T08:27:44.217Z,91.37
2018-10-18T08:30:13.499Z,90.53
2018-10-18T08:32:42.110Z,91.37
2018-10-18T08:35:11.719Z,90.49
2018-10-18T08:37:40.223Z,90.68
2018-10-18T08:40:08.862Z,91.35
2018-10-18T08:42:37.273Z,91.14
2018-10-18T08:45:07.083Z,91.11
2018-10-18T08:47:35.490Z,91.47
2018-10-18T08:50:04.010Z,90.89
2018-10-18T08:52:32.375Z,90.97
2018-10-18T08:55:00.775Z,91.59
2018-10-18T08:57:29.154Z,91.87
2018-10-18T08:59:57.554Z,91.72
2018-10-18T09:02:25.934Z,91.88
2018-10-18T09:04:54.338Z,91.65
2018-10-18T09:07:22.719Z,91.33
2018-10-18T09:09:51.134Z,92.06
2018-10-18T09:12:19.513Z,91.39
2018-10-18T09:14:47.939Z,91.74
2018-10-18T09:17:16.330Z,91.98
2018-10-18T09:19:44.735Z,92.62
2018-10-18T09:22:13.122Z,92.81
2018-10-18T09:24:41.523Z,92.22
2018-10-18T09:27:09.910Z,92.72
2018-10-18T09:29:38.314Z,91.91
2018-10-18T09:32:07.114Z,91.81
2018-10-18T09:34:35.542Z,92.11
2018-10-18T09:37:04.010Z,91.93
2018-10-18T09:39:32.380Z,91.51
2018-10-18T09:42:00.761Z,91.42
2018-10-18T09:44:29.272Z,91.74
2018-10-18T09:46:57.584Z,90.86
2018-10-18T09:49:25.987Z,91.80
2018-10-18T09:51:54.370Z,91.15
2018-10-18T09:54:22.770Z,91.46
2018-10-18T09:56:51.154Z,90.93
2018-10-18T09:59:19.562Z,90.80
2018-10-18T10:01:52.102Z,91.23
2018-10-18T10:04:20.600Z,90.69
2018-10-18T10:06:48.963Z,90.13
2018-10-18T10:09:17.370Z,90.39
2018-10-18T10:11:45.819Z,89.76
2018-10-18T10:14:14.183Z,89.59
2018-10-18T10:16:42.566Z,89.20
2018-10-18T10:19:11.017Z,89.53
2018-10-18T10:21:39.391Z,89.07
2018-10-18T10:24:07.795Z,89.20
2018-10-18T10:26:36.183Z,89.13
2018-10-18T10:29:04.609Z,88.94
2018-10-18T10:31:33.015Z,88.93
2018-10-18T10:34:01.428Z,89.13
2018-10-18T10:36:29.815Z,89.05
2018-10-18T10:38:58.231Z,88.35
2018-10-18T10:41:26.625Z,88.91
2018-10-18T10:43:55.014Z,88.09
2018-10-18T10:46:23.466Z,88.74
2018-10-18T10:48:51.824Z,88.27
2018-10-18T10:51:20.237Z,89.05
2018-10-18T10:53:48.622Z,89.21
2018-10-18T10:56:17.132Z,88.48
2018-10-18T10:58:45.509Z,89.28
2018-10-18T11:01:20.958Z,88.64
2018-10-18T11:03:50.447Z,88.66
2018-10-18T11:06:19.036Z,89.27
2018-10-18T11:08:47.307Z,89.11
2018-10-18T11:11:16.422Z,88.74
2018-10-18T11:13:44.878Z,88.99
2018-10-18T11:16:13.286Z,88.10
2018-10-18T11:18:42.149Z,88.74
2018-10-18T11:21:12.121Z,87.84
2018-10-18T11:23:40.442Z,87.89
2018-10-18T11:26:08.870Z,88.23
2018-10-18T11:28:37.262Z,87.82
2018-10-18T11:31:05.686Z,88.30
2018-10-18T11:33:34.154Z,88.37
2018-10-18T11:36:02.599Z,87.75
2018-10-18T11:38:30.986Z,87.60
2018-10-18T11:40:59.402Z,87.66
2018-10-18T11:43:27.786Z,87.70
2018-10-18T11:45:56.253Z,87.75
2018-10-18T11:48:24.641Z,87.83
2018-10-18T11:50:53.057Z,86.84
2018-10-18T11:53:21.455Z,87.98
2018-10-18T11:55:49.863Z,87.56
2018-10-18T11:58:18.246Z,87.78
2018-10-18T12:00:46.651Z,86.90
2018-10-18T12:03:15.030Z,86.87
2018-10-18T12:05:43.494Z,87.64
2018-10-18T12:08:11.929Z,87.07
2018-10-18T12:10:40.386Z,87.79
2018-10-18T12:13:08.799Z,88.05
2018-10-18T12:15:37.214Z,87.67
2018-10-18T12:18:05.746Z,87.79
2018-10-18T12:20:34.167Z,88.12
2018-10-18T12:23:02.624Z,88.23
2018-10-18T12:25:30.998Z,87.88
2018-10-18T12:27:59.387Z,88.71
2018-10-18T12:30:27.803Z,88.25
2018-10-18T12:32:56.211Z,88.32
2018-10-18T12:35:24.642Z,88.73
2018-10-18T12:37:53.041Z,89.07
2018-10-18T12:40:21.592Z,88.11
2018-10-18T12:42:50.815Z,89.32
2018-10-18T12:45:19.206Z,88.81
2018-10-18T12:47:47.637Z,89.03
2018-10-18T12:50:16.077Z,89.35
2018-10-18T12:52:44.470Z,89.49
2018-10-18T12:55:12.866Z,89.76
2018-10-18T12:57:41.294Z,89.67
2018-10-18T13:00:10.527Z,89.06
2018-10-18T13:02:38.970Z,88.90
2018-10-18T13:05:08.401Z,89.39
2018-10-18T13:07:36.842Z,89.98
2018-10-18T13:10:06.446Z,89.20
2018-10-18T13:12:35.028Z,89.11
2018-10-18T13:15:03.330Z,89.68
2018-10-18T13:17:31.754Z,89.26
2018-10-18T13:20:00.181Z,88.67
2018-10-18T13:22:28.607Z,87.96
2018-10-18T13:24:56.986Z,88.00
2018-10-18T13:27:25.390Z,87.49
2018-10-18T13:29:53.792Z,87.26
2018-10-18T13:32:22.231Z,88.26
2018-10-18T13:34:50.618Z,87.07
2018-10-18T13:37:19.075Z,87.26
2018-10-18T13:39:47.458Z,86.61
2018-10-18T13:42:15.952Z,85.94
2018-10-18T13:44:44.274Z,85.64
2018-10-18T13:47:12.674Z,85.46
2018-10-18T13:49:41.054Z,86.14
2018-10-18T13:52:09.450Z,85.73
2018-10-18T13:54:37.834Z,86.41
2018-10-18T13:57:06.551Z,85.99
2018-10-18T13:59:46.660Z,86.37
2018-10-18T14:02:15.237Z,85.72
2018-10-18T14:04:43.518Z,86.04
2018-10-18T14:07:12.058Z,85.90
2018-10-18T14:09:40.474Z,86.39
2018-10-18T14:12:08.886Z,85.72
2018-10-18T14:14:37.270Z,86.10
2018-10-18T14:17:05.835Z,85.41
2018-10-18T14:19:34.279Z,85.85
2018-10-18T14:22:02.690Z,85.97
2018-10-18T14:24:31.071Z,85.51
2018-10-18T14:26:59.478Z,85.33
2018-10-18T14:29:28.596Z,85.72
2018-10-18T14:31:58.709Z,84.93
2018-10-18T14:34:27.098Z,84.93
2018-10-18T14:36:55.538Z,85.37
2018-10-18T14:39:23.918Z,85.34
2018-10-18T14:41:52.307Z,84.84
2018-10-18T14:44:20.800Z,85.50
2018-10-18T14:46:49.113Z,84.49
2018-10-18T14:49:17.529Z,84.53
2018-10-18T14:51:45.906Z,84.57
2018-10-18T14:54:14.305Z,85.09
2018-10-18T14:56:42.706Z,85.50
2018-10-18T14:59:11.255Z,84.41
2018-10-18T15:01:39.524Z,85.21
2018-10-18T15:04:07.935Z,84.82
2018-10-18T15:06:36.399Z,84.14
2018-10-18T15:09:07.424Z,84.59
2018-10-18T15:11:36.374Z,84.09
2018-10-18T15:14:05.064Z,84.35
2018-10-18T15:16:33.417Z,83.90
2018-10-18T15:19:01.834Z,84.24
2018-10-18T15:21:30.216Z,84.21
2018-10-18T15:23:58.622Z,84.33
2018-10-18T15:26:27.263Z,84.10
2018-10-18T15:28:55.589Z,83.85
2018-10-18T15:31:23.994Z,83.95
2018-10-18T15:33:52.713Z,83.31
2018-10-18T15:36:21.153Z,84.04
2018-10-18T15:38:49.653Z,84.44
2018-10-18T15:41:18.043Z,83.92
2018-10-18T15:43:46.558Z,83.68
2018-10-18T15:46:15.068Z,83.66
2018-10-18T15:48:43.480Z,84.43
2018-10-18T15:51:12.008Z,83.74
2018-10-18T15:53:40.453Z,83.66
2018-10-18T15:56:08.807Z,84.20
2018-10-18T15:58:37.240Z,83.50
2018-10-18T16:01:05.839Z,83.99
2018-10-18T16:03:34.764Z,83.53
2018-10-18T16:06:03.202Z,84.35
2018-10-18T16:08:31.606Z,84.07
2018-10-18T16:11:00.044Z,83.63
2018-10-18T16:13:29.181Z,84.52
2018-10-18T16:15:57.534Z,84.28
2018-10-18T16:18:25.942Z,83.73
2018-10-18T16:20:54.578Z,83.57
2018-10-18T16:23:22.983Z,83.64
2018-10-18T16:25:51.386Z,84.22
2018-10-18T16:28:19.798Z,83.45
2018-10-18T16:30:48.194Z,83.89
2018-10-18T16:33:16.600Z,83.25
2018-10-18T16:35:45.015Z,83.21
2018-10-18T16:38:13.537Z,82.53
2018-10-18T16:40:42.404Z,82.52
2018-10-18T16:43:11.410Z,81.84
2018-10-18T16:45:39.815Z,82.34
2018-10-18T16:48:08.492Z,82.27
2018-10-18T16:50:36.910Z,81.47
2018-10-18T16:53:05.978Z,81.96
2018-10-18T16:55:34.378Z,81.92
2018-10-18T16:58:02.981Z,81.86
2018-10-18T17:00:31.370Z,81.25
2018-10-18T17:02:59.746Z,81.42
2018-10-18T17:05:28.151Z,80.99
2018-10-18T17:07:56.654Z,81.91
2018-10-18T17:10:25.055Z,81.77
2018-10-18T17:12:53.430Z,81.50
2018-10-18T17:15:21.833Z,81.19
2018-10-18T17:17:50.274Z,82.09
2018-10-18T17:20:18.732Z,82.37
2018-10-18T17:22:47.038Z,82.10
2018-10-18T17:25:15.451Z,81.80
2018-10-18T17:27:43.868Z,82.09
2018-10-18T17:30:12.322Z,82.48
2018-10-18T17:32:40.711Z,81.92
2018-10-18T17:35:09.114Z,81.57
2018-10-18T17:37:37.491Z,82.09
2018-10-18T17:40:06.565Z,81.71
2018-10-18T17:42:34.898Z,81.51
2018-10-18T17:45:03.303Z,81.17
2018-10-18T17:47:31.694Z,81.64
2018-10-18T17:50:00.137Z,81.68
2018-10-18T17:52:28.515Z,80.74
2018-10-18T17:54:56.918Z,80.81
2018-10-18T17:57:25.285Z,80.85
2018-10-18T17:59:53.743Z,81.73
2018-10-18T18:02:22.327Z,81.02
2018-10-18T18:04:50.818Z,81.06
2018-10-18T18:07:19.250Z,81.31
2018-10-18T18:09:47.801Z,81.44
2018-10-18T18:12:16.346Z,81.86
2018-10-18T18:14:44.733Z,81.76
2018-10-18T18:17:13.107Z,82.03
2018-10-18T18:19:41.528Z,81.70
2018-10-18T18:22:10.019Z,81.95
2018-10-18T18:24:38.498Z,82.46
2018-10-18T18:27:06.928Z,81.91
2018-10-18T18:29:35.292Z,81.75
2018-10-18T18:32:03.708Z,82.45
2018-10-18T18:34:32.126Z,82.21
2018-10-18T18:37:00.518Z,82.54
2018-10-18T18:39:28.890Z,82.97
2018-10-18T18:41:57.311Z,83.36
2018-10-18T18:44:25.684Z,83.15
2018-10-18T18:46:54.085Z,83.03
2018-10-18T18:49:22.663Z,83.06
2018-10-18T18:51:51.098Z,83.70
2018-10-18T18:54:19.506Z,83.64
2018-10-18T18:56:47.990Z,83.90
2018-10-18T18:59:16.376Z,84.13
2018-10-18T19:01:44.783Z,84.09
2018-10-18T19:04:13.159Z,83.96
2018-10-18T19:06:41.591Z,84.85
2018-10-18T19:09:10.550Z,84.96
2018-10-18T19:11:39.226Z,84.01
2018-10-18T19:14:08.387Z,84.71
2018-10-18T19:16:36.738Z,84.71
2018-10-18T19:19:06.558Z,84.46
2018-10-18T19:21:35.206Z,84.32
2018-10-18T19:24:03.581Z,84.32
2018-10-18T19:26:31.974Z,84.56
2018-10-18T19:29:00.355Z,85.04
2018-10-18T19:31:28.776Z,85.16
2018-10-18T19:33:57.222Z,85.09
2018-10-18T19:36:25.686Z,85.54
2018-10-18T19:38:54.366Z,85.35
2018-10-18T19:41:22.811Z,84.72
2018-10-18T19:43:51.188Z,85.44
2018-10-18T19:46:19.659Z,84.58
2018-10-18T19:48:48.010Z,85.09
2018-10-18T19:51:16.411Z,84.95
2018-10-18T19:53:44.787Z,84.60
2018-10-18T19:56:13.236Z,84.74
2018-10-18T19:58:41.617Z,84.69
2018-10-18T20:01:10.090Z,84.90
2018-10-18T20:03:38.478Z,85.11
2018-10-18T20:06:06.881Z,85.47
2018-10-18T20:08:35.263Z,84.93
2018-10-18T20:11:03.638Z,84.97
2018-10-18T20:13:32.052Z,85.27
2018-10-18T20:16:00.422Z,84.88
2018-10-18T20:18:28.844Z,85.52
2018-10-18T20:20:57.265Z,85.00
2018-10-18T20:23:25.643Z,85.08
2018-10-18T20:25:54.186Z,84.92
2018-10-18T20:28:22.428Z,84.88
2018-10-18T20:30:50.822Z,84.46
2018-10-18T20:33:19.219Z,84.86
2018-10-18T20:35:47.586Z,84.65
2018-10-18T20:38:15.978Z,84.83
2018-10-18T20:40:44.347Z,84.83
2018-10-18T20:43:12.739Z,84.67
2018-10-18T20:45:41.110Z,84.71
2018-10-18T20:48:09.647Z,84.99
2018-10-18T20:50:37.938Z,85.00
2018-10-18T20:53:06.382Z,84.88
2018-10-18T20:55:34.740Z,84.93
2018-10-18T20:58:03.126Z,84.01
2018-10-18T21:00:31.506Z,84.34
2018-10-18T21:02:59.967Z,84.79
2018-10-18T21:05:28.317Z,84.93
2018-10-18T21:07:56.722Z,84.32
2018-10-18T21:10:25.094Z,84.62
2018-10-18T21:12:53.488Z,84.94
2018-10-18T21:15:21.878Z,85.22
2018-10-18T21:17:50.522Z,84.63
2018-10-18T21:20:18.887Z,84.97
2018-10-18T21:22:47.283Z,84.88
2018-10-18T21:25:15.659Z,84.41
2018-10-18T21:27:44.123Z,84.63
2018-10-18T21:30:12.452Z,84.93
2018-10-18T21:32:40.867Z,84.41
2018-10-18T21:35:09.317Z,84.50
2018-10-18T21:37:37.657Z,84.94
2018-10-18T21:40:06.037Z,84.33
2018-10-18T21:42:34.433Z,84.72
2018-10-18T21:45:03.811Z,84.96
2018-10-18T21:47:32.310Z,85.02
2018-10-18T21:50:00.688Z,84.68
2018-10-18T21:52:29.082Z,85.21
2018-10-18T21:54:57.463Z,84.69
2018-10-18T21:57:25.862Z,85.11
2018-10-18T21:59:54.253Z,84.58
2018-10-18T22:02:22.622Z,85.06
2018-10-18T22:04:51.014Z,85.16
2018-10-18T22:07:19.418Z,85.19
2018-10-18T22:09:47.810Z,85.05
2018-10-18T22:12:16.175Z,84.82
2018-10-18T22:14:44.565Z,85.17
2018-10-18T22:17:12.994Z,85.25
2018-10-18T22:19:41.356Z,84.96
2018-10-18T22:22:09.727Z,85.17
2018-10-18T22:24:38.124Z,85.13
2018-10-18T22:27:06.514Z,85.05
2018-10-18T22:29:34.919Z,85.39
2018-10-18T22:32:03.314Z,85.04
2018-10-18T22:34:31.723Z,85.07
2018-10-18T22:37:00.126Z,85.30
2018-10-18T22:39:28.525Z,85.44
2018-10-18T22:41:56.889Z,85.69
2018-10-18T22:44:25.285Z,85.30
2018-10-18T22:46:53.653Z,85.95
2018-10-18T22:49:22.050Z,85.52
2018-10-18T22:51:50.423Z,86.08
2018-10-18T22:54:19.066Z,85.43
2018-10-18T22:56:47.462Z,85.14
2018-10-18T22:59:15.926Z,85.39
2018-10-18T23:01:44.270Z,85.26
2018-10-18T23:04:12.675Z,85.26
2018-10-18T23:06:41.104Z,85.59
2018-10-18T23:09:11.078Z,85.11
2018-10-18T23:11:39.455Z,85.09
2018-10-18T23:14:08.718Z,85.12
2018-10-18T23:16:37.682Z,84.93
2018-10-18T23:19:06.295Z,85.53
2018-10-18T23:21:34.702Z,85.55
2018-10-18T23:24:03.094Z,85.86
2018-10-18T23:26:31.610Z,85.77
2018-10-18T23:29:00.135Z,85.79
2018-10-18T23:31:28.543Z,85.76
2018-10-18T23:33:56.947Z,85.66
2018-10-18T23:36:25.338Z,85.83
2018-10-18T23:38:53.748Z,85.56
2018-10-18T23:41:22.148Z,85.43
2018-10-18T23:43:50.566Z,85.19
2018-10-18T23:46:18.931Z,85.70
2018-10-18T23:48:47.319Z,85.58
2018-10-18T23:51:15.829Z,85.45
2018-10-18T23:53:44.101Z,85.46
2018-10-18T23:56:12.501Z,85.83
2018-10-18T23:58:40.870Z,85.74
